sensor_id;sensor_type;location;lat;lon;timestamp;P1;durP1;ratioP1;P2;durP2;ratioP2
69714;SDS011;56981;53.532;49.398;2023-07-22T00:01:30;1.25;;;1.00;;
69714;SDS011;56981;53.532;49.398;2023-07-22T00:03:57;0.93;;;0.70;;
69714;SDS011;56981;53.532;49.398;2023-07-22T00:06:23;1.23;;;0.98;;
69714;SDS011;56981;53.532;49.398;2023-07-22T00:08:50;0.60;;;0.60;;
69714;SDS011;56981;53.532;49.398;2023-07-22T00:11:16;0.95;;;0.70;;
69714;SDS011;56981;53.532;49.398;2023-07-22T00:13:42;0.65;;;0.65;;
69714;SDS011;56981;53.532;49.398;2023-07-22T00:16:09;0.77;;;0.73;;
69714;SDS011;56981;53.532;49.398;2023-07-22T00:18:36;0.73;;;0.73;;
69714;SDS011;56981;53.532;49.398;2023-07-22T00:21:02;0.70;;;0.70;;
69714;SDS011;56981;53.532;49.398;2023-07-22T00:23:29;1.40;;;1.17;;
69714;SDS011;56981;53.532;49.398;2023-07-22T00:25:55;0.70;;;0.70;;
69714;SDS011;56981;53.532;49.398;2023-07-22T00:28:21;1.45;;;0.80;;
69714;SDS011;56981;53.532;49.398;2023-07-22T00:30:47;0.80;;;0.80;;
69714;SDS011;56981;53.532;49.398;2023-07-22T00:33:14;0.70;;;0.70;;
69714;SDS011;56981;53.532;49.398;2023-07-22T00:35:40;1.65;;;0.80;;
69714;SDS011;56981;53.532;49.398;2023-07-22T00:38:06;1.13;;;0.90;;
69714;SDS011;56981;53.532;49.398;2023-07-22T00:40:32;0.88;;;0.88;;
69714;SDS011;56981;53.532;49.398;2023-07-22T00:42:58;0.85;;;0.85;;
69714;SDS011;56981;53.532;49.398;2023-07-22T00:45:25;1.60;;;1.33;;
69714;SDS011;56981;53.532;49.398;2023-07-22T00:47:51;1.20;;;1.10;;
69714;SDS011;56981;53.532;49.398;2023-07-22T00:50:17;1.10;;;1.00;;
69714;SDS011;56981;53.532;49.398;2023-07-22T00:52:44;0.95;;;0.95;;
69714;SDS011;56981;53.532;49.398;2023-07-22T00:55:10;1.10;;;1.00;;
69714;SDS011;56981;53.532;49.398;2023-07-22T00:57:36;1.70;;;1.15;;
69714;SDS011;56981;53.532;49.398;2023-07-22T01:00:03;1.52;;;1.00;;
69714;SDS011;56981;53.532;49.398;2023-07-22T01:02:31;1.48;;;0.95;;
69714;SDS011;56981;53.532;49.398;2023-07-22T01:04:57;1.17;;;1.00;;
69714;SDS011;56981;53.532;49.398;2023-07-22T01:07:23;1.55;;;1.00;;
69714;SDS011;56981;53.532;49.398;2023-07-22T01:09:55;1.00;;;0.90;;
69714;SDS011;56981;53.532;49.398;2023-07-22T01:12:22;1.55;;;0.93;;
69714;SDS011;56981;53.532;49.398;2023-07-22T01:14:48;1.00;;;0.80;;
69714;SDS011;56981;53.532;49.398;2023-07-22T01:17:14;2.03;;;1.00;;
69714;SDS011;56981;53.532;49.398;2023-07-22T01:19:40;1.15;;;0.90;;
69714;SDS011;56981;53.532;49.398;2023-07-22T01:22:06;1.77;;;0.90;;
69714;SDS011;56981;53.532;49.398;2023-07-22T01:24:33;1.92;;;1.10;;
69714;SDS011;56981;53.532;49.398;2023-07-22T01:27:00;1.17;;;0.93;;
69714;SDS011;56981;53.532;49.398;2023-07-22T01:29:26;1.00;;;0.90;;
69714;SDS011;56981;53.532;49.398;2023-07-22T01:31:53;1.25;;;1.10;;
69714;SDS011;56981;53.532;49.398;2023-07-22T01:34:20;1.65;;;1.05;;
69714;SDS011;56981;53.532;49.398;2023-07-22T01:36:47;1.77;;;0.90;;
69714;SDS011;56981;53.532;49.398;2023-07-22T01:39:14;1.35;;;1.00;;
69714;SDS011;56981;53.532;49.398;2023-07-22T01:41:41;3.20;;;0.90;;
69714;SDS011;56981;53.532;49.398;2023-07-22T01:44:07;2.33;;;1.30;;
69714;SDS011;56981;53.532;49.398;2023-07-22T01:46:36;1.10;;;1.00;;
69714;SDS011;56981;53.532;49.398;2023-07-22T01:49:07;1.30;;;1.20;;
69714;SDS011;56981;53.532;49.398;2023-07-22T01:51:36;1.30;;;1.05;;
69714;SDS011;56981;53.532;49.398;2023-07-22T01:54:05;1.50;;;1.20;;
69714;SDS011;56981;53.532;49.398;2023-07-22T01:56:32;1.75;;;1.20;;
69714;SDS011;56981;53.532;49.398;2023-07-22T01:58:58;1.27;;;1.10;;
69714;SDS011;56981;53.532;49.398;2023-07-22T02:01:24;1.17;;;1.05;;
69714;SDS011;56981;53.532;49.398;2023-07-22T02:03:50;1.52;;;1.30;;
69714;SDS011;56981;53.532;49.398;2023-07-22T02:06:16;2.78;;;1.10;;
69714;SDS011;56981;53.532;49.398;2023-07-22T02:08:42;1.17;;;1.10;;
69714;SDS011;56981;53.532;49.398;2023-07-22T02:11:08;1.58;;;1.05;;
69714;SDS011;56981;53.532;49.398;2023-07-22T02:13:35;1.50;;;1.20;;
69714;SDS011;56981;53.532;49.398;2023-07-22T02:16:01;3.08;;;1.40;;
69714;SDS011;56981;53.532;49.398;2023-07-22T02:18:27;1.25;;;1.15;;
69714;SDS011;56981;53.532;49.398;2023-07-22T02:20:54;2.53;;;1.38;;
69714;SDS011;56981;53.532;49.398;2023-07-22T02:23:21;1.40;;;1.20;;
69714;SDS011;56981;53.532;49.398;2023-07-22T02:25:51;1.65;;;1.40;;
69714;SDS011;56981;53.532;49.398;2023-07-22T02:28:17;1.38;;;1.20;;
69714;SDS011;56981;53.532;49.398;2023-07-22T02:30:47;1.63;;;1.10;;
69714;SDS011;56981;53.532;49.398;2023-07-22T02:33:13;1.45;;;1.17;;
69714;SDS011;56981;53.532;49.398;2023-07-22T02:35:42;1.67;;;1.17;;
69714;SDS011;56981;53.532;49.398;2023-07-22T02:38:08;2.75;;;1.42;;
69714;SDS011;56981;53.532;49.398;2023-07-22T02:40:35;2.08;;;1.25;;
69714;SDS011;56981;53.532;49.398;2023-07-22T02:43:02;1.75;;;1.40;;
69714;SDS011;56981;53.532;49.398;2023-07-22T02:45:29;1.83;;;1.35;;
69714;SDS011;56981;53.532;49.398;2023-07-22T02:47:55;1.70;;;1.40;;
69714;SDS011;56981;53.532;49.398;2023-07-22T02:50:21;2.05;;;1.50;;
69714;SDS011;56981;53.532;49.398;2023-07-22T02:52:47;2.97;;;1.35;;
69714;SDS011;56981;53.532;49.398;2023-07-22T02:55:14;1.50;;;1.40;;
69714;SDS011;56981;53.532;49.398;2023-07-22T02:57:44;2.08;;;1.30;;
69714;SDS011;56981;53.532;49.398;2023-07-22T03:00:11;1.60;;;1.50;;
69714;SDS011;56981;53.532;49.398;2023-07-22T03:02:39;2.13;;;1.38;;
69714;SDS011;56981;53.532;49.398;2023-07-22T03:05:09;2.95;;;1.42;;
69714;SDS011;56981;53.532;49.398;2023-07-22T03:07:35;3.33;;;1.40;;
69714;SDS011;56981;53.532;49.398;2023-07-22T03:10:03;2.08;;;1.40;;
69714;SDS011;56981;53.532;49.398;2023-07-22T03:12:30;1.77;;;1.40;;
69714;SDS011;56981;53.532;49.398;2023-07-22T03:14:56;2.72;;;1.52;;
69714;SDS011;56981;53.532;49.398;2023-07-22T03:17:22;1.60;;;1.50;;
69714;SDS011;56981;53.532;49.398;2023-07-22T03:19:48;1.52;;;1.42;;
69714;SDS011;56981;53.532;49.398;2023-07-22T03:22:15;1.35;;;1.25;;
69714;SDS011;56981;53.532;49.398;2023-07-22T03:24:42;5.68;;;1.50;;
69714;SDS011;56981;53.532;49.398;2023-07-22T03:27:08;9.55;;;2.42;;
69714;SDS011;56981;53.532;49.398;2023-07-22T03:29:34;2.83;;;1.55;;
69714;SDS011;56981;53.532;49.398;2023-07-22T03:32:00;2.53;;;1.85;;
69714;SDS011;56981;53.532;49.398;2023-07-22T03:34:27;2.13;;;1.90;;
69714;SDS011;56981;53.532;49.398;2023-07-22T03:36:53;5.78;;;1.73;;
69714;SDS011;56981;53.532;49.398;2023-07-22T03:39:19;8.80;;;2.03;;
69714;SDS011;56981;53.532;49.398;2023-07-22T03:41:46;1.88;;;1.33;;
69714;SDS011;56981;53.532;49.398;2023-07-22T03:44:12;2.22;;;1.50;;
69714;SDS011;56981;53.532;49.398;2023-07-22T03:46:38;1.80;;;1.30;;
69714;SDS011;56981;53.532;49.398;2023-07-22T03:49:04;1.35;;;1.23;;
69714;SDS011;56981;53.532;49.398;2023-07-22T03:51:30;1.58;;;1.30;;
69714;SDS011;56981;53.532;49.398;2023-07-22T03:53:56;5.18;;;1.70;;
69714;SDS011;56981;53.532;49.398;2023-07-22T03:56:23;3.60;;;1.52;;
69714;SDS011;56981;53.532;49.398;2023-07-22T03:58:52;3.53;;;1.60;;
69714;SDS011;56981;53.532;49.398;2023-07-22T04:01:18;1.63;;;1.52;;
69714;SDS011;56981;53.532;49.398;2023-07-22T04:03:45;2.03;;;1.15;;
69714;SDS011;56981;53.532;49.398;2023-07-22T04:06:11;1.80;;;1.45;;
69714;SDS011;56981;53.532;49.398;2023-07-22T04:08:37;1.58;;;1.48;;
69714;SDS011;56981;53.532;49.398;2023-07-22T04:11:03;2.40;;;1.70;;
69714;SDS011;56981;53.532;49.398;2023-07-22T04:13:29;1.50;;;1.40;;
69714;SDS011;56981;53.532;49.398;2023-07-22T04:15:55;2.17;;;1.63;;
69714;SDS011;56981;53.532;49.398;2023-07-22T04:18:21;2.58;;;1.65;;
69714;SDS011;56981;53.532;49.398;2023-07-22T04:20:47;1.45;;;1.35;;
69714;SDS011;56981;53.532;49.398;2023-07-22T04:23:14;2.90;;;1.40;;
69714;SDS011;56981;53.532;49.398;2023-07-22T04:25:40;1.65;;;1.40;;
69714;SDS011;56981;53.532;49.398;2023-07-22T04:28:07;1.40;;;1.30;;
69714;SDS011;56981;53.532;49.398;2023-07-22T04:30:34;1.73;;;1.42;;
69714;SDS011;56981;53.532;49.398;2023-07-22T04:33:00;2.72;;;1.50;;
69714;SDS011;56981;53.532;49.398;2023-07-22T04:35:26;3.22;;;1.40;;
69714;SDS011;56981;53.532;49.398;2023-07-22T04:37:55;1.50;;;1.40;;
69714;SDS011;56981;53.532;49.398;2023-07-22T04:40:21;1.63;;;1.52;;
69714;SDS011;56981;53.532;49.398;2023-07-22T04:42:47;1.98;;;1.60;;
69714;SDS011;56981;53.532;49.398;2023-07-22T04:45:13;2.22;;;1.60;;
69714;SDS011;56981;53.532;49.398;2023-07-22T04:47:41;2.67;;;1.63;;
69714;SDS011;56981;53.532;49.398;2023-07-22T04:50:09;9.40;;;2.13;;
69714;SDS011;56981;53.532;49.398;2023-07-22T04:52:36;1.83;;;1.73;;
69714;SDS011;56981;53.532;49.398;2023-07-22T04:55:02;1.92;;;1.70;;
69714;SDS011;56981;53.532;49.398;2023-07-22T04:57:34;4.93;;;2.30;;
69714;SDS011;56981;53.532;49.398;2023-07-22T05:00:02;2.67;;;1.98;;
69714;SDS011;56981;53.532;49.398;2023-07-22T05:02:29;2.38;;;1.77;;
69714;SDS011;56981;53.532;49.398;2023-07-22T05:04:56;2.58;;;1.95;;
69714;SDS011;56981;53.532;49.398;2023-07-22T05:07:22;1.70;;;1.60;;
69714;SDS011;56981;53.532;49.398;2023-07-22T05:09:49;2.42;;;1.80;;
69714;SDS011;56981;53.532;49.398;2023-07-22T05:12:15;2.75;;;1.80;;
69714;SDS011;56981;53.532;49.398;2023-07-22T05:14:41;1.83;;;1.63;;
69714;SDS011;56981;53.532;49.398;2023-07-22T05:17:07;3.63;;;2.10;;
69714;SDS011;56981;53.532;49.398;2023-07-22T05:19:33;1.67;;;1.58;;
69714;SDS011;56981;53.532;49.398;2023-07-22T05:21:59;1.50;;;1.40;;
69714;SDS011;56981;53.532;49.398;2023-07-22T05:24:25;1.65;;;1.55;;
69714;SDS011;56981;53.532;49.398;2023-07-22T05:26:52;2.83;;;1.70;;
69714;SDS011;56981;53.532;49.398;2023-07-22T05:29:19;1.80;;;1.58;;
69714;SDS011;56981;53.532;49.398;2023-07-22T05:31:45;6.90;;;3.10;;
69714;SDS011;56981;53.532;49.398;2023-07-22T05:34:11;2.70;;;1.42;;
69714;SDS011;56981;53.532;49.398;2023-07-22T05:36:38;4.90;;;2.65;;
69714;SDS011;56981;53.532;49.398;2023-07-22T05:39:04;3.47;;;2.08;;
69714;SDS011;56981;53.532;49.398;2023-07-22T05:41:32;1.85;;;1.75;;
69714;SDS011;56981;53.532;49.398;2023-07-22T05:43:59;5.47;;;1.90;;
69714;SDS011;56981;53.532;49.398;2023-07-22T05:46:25;6.60;;;4.07;;
69714;SDS011;56981;53.532;49.398;2023-07-22T05:48:51;6.07;;;2.53;;
69714;SDS011;56981;53.532;49.398;2023-07-22T05:51:17;3.58;;;1.75;;
69714;SDS011;56981;53.532;49.398;2023-07-22T05:53:44;2.00;;;1.83;;
69714;SDS011;56981;53.532;49.398;2023-07-22T05:56:10;2.00;;;1.90;;
69714;SDS011;56981;53.532;49.398;2023-07-22T05:58:36;5.65;;;2.30;;
69714;SDS011;56981;53.532;49.398;2023-07-22T06:01:05;4.28;;;2.10;;
69714;SDS011;56981;53.532;49.398;2023-07-22T06:03:31;3.30;;;2.15;;
69714;SDS011;56981;53.532;49.398;2023-07-22T06:05:57;4.28;;;2.10;;
69714;SDS011;56981;53.532;49.398;2023-07-22T06:08:23;3.22;;;2.00;;
69714;SDS011;56981;53.532;49.398;2023-07-22T06:10:51;12.73;;;3.15;;
69714;SDS011;56981;53.532;49.398;2023-07-22T06:13:17;2.50;;;2.30;;
69714;SDS011;56981;53.532;49.398;2023-07-22T06:15:43;31.00;;;3.60;;
69714;SDS011;56981;53.532;49.398;2023-07-22T06:18:09;2.55;;;1.90;;
69714;SDS011;56981;53.532;49.398;2023-07-22T06:20:35;6.72;;;2.20;;
69714;SDS011;56981;53.532;49.398;2023-07-22T06:23:02;5.32;;;2.75;;
69714;SDS011;56981;53.532;49.398;2023-07-22T06:25:28;3.67;;;2.13;;
69714;SDS011;56981;53.532;49.398;2023-07-22T06:27:54;11.68;;;2.70;;
69714;SDS011;56981;53.532;49.398;2023-07-22T06:30:20;3.28;;;2.35;;
69714;SDS011;56981;53.532;49.398;2023-07-22T06:32:47;3.50;;;2.40;;
69714;SDS011;56981;53.532;49.398;2023-07-22T06:35:13;2.55;;;2.35;;
69714;SDS011;56981;53.532;49.398;2023-07-22T06:37:39;5.30;;;2.70;;
69714;SDS011;56981;53.532;49.398;2023-07-22T06:40:06;3.65;;;2.28;;
69714;SDS011;56981;53.532;49.398;2023-07-22T06:42:32;5.25;;;2.60;;
69714;SDS011;56981;53.532;49.398;2023-07-22T06:44:59;4.55;;;2.90;;
69714;SDS011;56981;53.532;49.398;2023-07-22T06:47:25;5.45;;;2.60;;
69714;SDS011;56981;53.532;49.398;2023-07-22T06:49:51;2.88;;;2.53;;
69714;SDS011;56981;53.532;49.398;2023-07-22T06:52:17;8.18;;;2.60;;
69714;SDS011;56981;53.532;49.398;2023-07-22T06:54:43;7.32;;;2.80;;
69714;SDS011;56981;53.532;49.398;2023-07-22T06:57:09;6.63;;;4.00;;
69714;SDS011;56981;53.532;49.398;2023-07-22T06:59:36;6.10;;;2.40;;
69714;SDS011;56981;53.532;49.398;2023-07-22T07:02:02;2.72;;;2.00;;
69714;SDS011;56981;53.532;49.398;2023-07-22T07:04:30;2.03;;;1.90;;
69714;SDS011;56981;53.532;49.398;2023-07-22T07:06:56;8.35;;;2.55;;
69714;SDS011;56981;53.532;49.398;2023-07-22T07:09:22;40.80;;;4.07;;
69714;SDS011;56981;53.532;49.398;2023-07-22T07:11:48;3.30;;;2.33;;
69714;SDS011;56981;53.532;49.398;2023-07-22T07:14:14;2.75;;;2.55;;
69714;SDS011;56981;53.532;49.398;2023-07-22T07:16:40;5.93;;;2.80;;
69714;SDS011;56981;53.532;49.398;2023-07-22T07:19:06;10.68;;;2.83;;
69714;SDS011;56981;53.532;49.398;2023-07-22T07:21:32;3.03;;;2.38;;
69714;SDS011;56981;53.532;49.398;2023-07-22T07:23:58;3.85;;;2.30;;
69714;SDS011;56981;53.532;49.398;2023-07-22T07:26:24;4.80;;;2.50;;
69714;SDS011;56981;53.532;49.398;2023-07-22T07:28:51;8.43;;;2.80;;
69714;SDS011;56981;53.532;49.398;2023-07-22T07:31:18;6.55;;;2.88;;
69714;SDS011;56981;53.532;49.398;2023-07-22T07:33:44;4.53;;;1.83;;
69714;SDS011;56981;53.532;49.398;2023-07-22T07:36:10;3.40;;;2.13;;
69714;SDS011;56981;53.532;49.398;2023-07-22T07:38:36;2.55;;;2.13;;
69714;SDS011;56981;53.532;49.398;2023-07-22T07:41:03;1.92;;;1.83;;
69714;SDS011;56981;53.532;49.398;2023-07-22T07:43:34;2.92;;;2.08;;
69714;SDS011;56981;53.532;49.398;2023-07-22T07:46:17;2.25;;;1.63;;
69714;SDS011;56981;53.532;49.398;2023-07-22T07:48:46;1.83;;;1.73;;
69714;SDS011;56981;53.532;49.398;2023-07-22T07:51:16;14.30;;;2.60;;
69714;SDS011;56981;53.532;49.398;2023-07-22T07:53:43;2.72;;;2.15;;
69714;SDS011;56981;53.532;49.398;2023-07-22T07:56:10;4.20;;;1.83;;
69714;SDS011;56981;53.532;49.398;2023-07-22T07:58:37;3.47;;;2.20;;
69714;SDS011;56981;53.532;49.398;2023-07-22T08:01:04;2.53;;;2.33;;
69714;SDS011;56981;53.532;49.398;2023-07-22T08:03:30;4.05;;;2.40;;
69714;SDS011;56981;53.532;49.398;2023-07-22T08:05:57;3.00;;;2.10;;
69714;SDS011;56981;53.532;49.398;2023-07-22T08:08:23;2.25;;;2.00;;
69714;SDS011;56981;53.532;49.398;2023-07-22T08:10:59;2.35;;;1.65;;
69714;SDS011;56981;53.532;49.398;2023-07-22T08:13:26;3.08;;;1.73;;
69714;SDS011;56981;53.532;49.398;2023-07-22T08:15:52;3.25;;;2.00;;
69714;SDS011;56981;53.532;49.398;2023-07-22T08:18:19;3.17;;;1.77;;
69714;SDS011;56981;53.532;49.398;2023-07-22T08:20:44;1.88;;;1.60;;
69714;SDS011;56981;53.532;49.398;2023-07-22T08:23:13;2.95;;;1.50;;
69714;SDS011;56981;53.532;49.398;2023-07-22T08:25:39;2.67;;;1.38;;
69714;SDS011;56981;53.532;49.398;2023-07-22T08:28:05;3.05;;;1.40;;
69714;SDS011;56981;53.532;49.398;2023-07-22T08:30:31;2.90;;;1.70;;
69714;SDS011;56981;53.532;49.398;2023-07-22T08:32:57;13.18;;;3.55;;
69714;SDS011;56981;53.532;49.398;2023-07-22T08:35:23;3.80;;;1.75;;
69714;SDS011;56981;53.532;49.398;2023-07-22T08:37:50;2.88;;;1.80;;
69714;SDS011;56981;53.532;49.398;2023-07-22T08:40:16;1.52;;;1.40;;
69714;SDS011;56981;53.532;49.398;2023-07-22T08:42:42;3.42;;;1.30;;
69714;SDS011;56981;53.532;49.398;2023-07-22T08:45:11;13.18;;;2.28;;
69714;SDS011;56981;53.532;49.398;2023-07-22T08:47:46;2.20;;;1.30;;
69714;SDS011;56981;53.532;49.398;2023-07-22T08:50:15;1.58;;;1.48;;
69714;SDS011;56981;53.532;49.398;2023-07-22T08:52:45;5.75;;;1.40;;
69714;SDS011;56981;53.532;49.398;2023-07-22T08:55:13;2.38;;;1.40;;
69714;SDS011;56981;53.532;49.398;2023-07-22T08:57:39;1.52;;;1.30;;
69714;SDS011;56981;53.532;49.398;2023-07-22T09:00:07;2.60;;;1.50;;
69714;SDS011;56981;53.532;49.398;2023-07-22T09:02:35;3.15;;;1.40;;
69714;SDS011;56981;53.532;49.398;2023-07-22T09:05:02;6.63;;;2.00;;
69714;SDS011;56981;53.532;49.398;2023-07-22T09:07:28;3.55;;;2.47;;
69714;SDS011;56981;53.532;49.398;2023-07-22T09:09:57;2.00;;;1.63;;
69714;SDS011;56981;53.532;49.398;2023-07-22T09:12:24;3.58;;;1.58;;
69714;SDS011;56981;53.532;49.398;2023-07-22T09:14:51;1.65;;;1.52;;
69714;SDS011;56981;53.532;49.398;2023-07-22T09:17:18;3.53;;;1.52;;
69714;SDS011;56981;53.532;49.398;2023-07-22T09:19:44;1.90;;;1.75;;
69714;SDS011;56981;53.532;49.398;2023-07-22T09:22:10;2.38;;;1.67;;
69714;SDS011;56981;53.532;49.398;2023-07-22T09:24:36;2.60;;;1.40;;
69714;SDS011;56981;53.532;49.398;2023-07-22T09:27:03;4.80;;;1.70;;
69714;SDS011;56981;53.532;49.398;2023-07-22T09:29:36;2.60;;;2.00;;
69714;SDS011;56981;53.532;49.398;2023-07-22T09:32:03;11.10;;;2.40;;
69714;SDS011;56981;53.532;49.398;2023-07-22T09:34:30;1.58;;;1.48;;
69714;SDS011;56981;53.532;49.398;2023-07-22T09:36:57;2.55;;;1.80;;
69714;SDS011;56981;53.532;49.398;2023-07-22T09:39:28;4.28;;;1.52;;
69714;SDS011;56981;53.532;49.398;2023-07-22T09:41:55;5.50;;;1.60;;
69714;SDS011;56981;53.532;49.398;2023-07-22T09:44:29;1.63;;;1.52;;
69714;SDS011;56981;53.532;49.398;2023-07-22T09:46:55;1.52;;;1.30;;
69714;SDS011;56981;53.532;49.398;2023-07-22T09:49:21;3.20;;;1.60;;
69714;SDS011;56981;53.532;49.398;2023-07-22T09:51:50;29.50;;;3.20;;
69714;SDS011;56981;53.532;49.398;2023-07-22T09:54:17;1.27;;;1.17;;
69714;SDS011;56981;53.532;49.398;2023-07-22T09:56:49;6.68;;;1.55;;
69714;SDS011;56981;53.532;49.398;2023-07-22T09:59:17;2.05;;;1.35;;
69714;SDS011;56981;53.532;49.398;2023-07-22T10:01:45;1.83;;;1.33;;
69714;SDS011;56981;53.532;49.398;2023-07-22T10:04:15;1.80;;;1.20;;
69714;SDS011;56981;53.532;49.398;2023-07-22T10:06:42;5.93;;;1.63;;
69714;SDS011;56981;53.532;49.398;2023-07-22T10:09:09;2.92;;;1.42;;
69714;SDS011;56981;53.532;49.398;2023-07-22T10:11:37;3.00;;;1.10;;
69714;SDS011;56981;53.532;49.398;2023-07-22T10:14:06;2.00;;;1.30;;
69714;SDS011;56981;53.532;49.398;2023-07-22T10:16:32;4.85;;;1.38;;
69714;SDS011;56981;53.532;49.398;2023-07-22T10:19:00;1.52;;;1.40;;
69714;SDS011;56981;53.532;49.398;2023-07-22T10:21:28;2.25;;;1.52;;
69714;SDS011;56981;53.532;49.398;2023-07-22T10:23:55;2.67;;;1.40;;
69714;SDS011;56981;53.532;49.398;2023-07-22T10:26:21;2.92;;;1.35;;
69714;SDS011;56981;53.532;49.398;2023-07-22T10:28:47;1.42;;;1.33;;
69714;SDS011;56981;53.532;49.398;2023-07-22T10:31:14;1.50;;;1.40;;
69714;SDS011;56981;53.532;49.398;2023-07-22T10:36:14;16.40;;;2.08;;
69714;SDS011;56981;53.532;49.398;2023-07-22T10:38:41;4.78;;;1.65;;
69714;SDS011;56981;53.532;49.398;2023-07-22T10:41:11;4.57;;;1.52;;
69714;SDS011;56981;53.532;49.398;2023-07-22T10:43:39;3.70;;;1.48;;
69714;SDS011;56981;53.532;49.398;2023-07-22T10:46:07;3.83;;;1.40;;
69714;SDS011;56981;53.532;49.398;2023-07-22T10:48:36;2.20;;;1.38;;
69714;SDS011;56981;53.532;49.398;2023-07-22T10:51:05;3.10;;;1.80;;
69714;SDS011;56981;53.532;49.398;2023-07-22T10:53:37;2.38;;;1.50;;
69714;SDS011;56981;53.532;49.398;2023-07-22T11:01:53;1.90;;;1.50;;
69714;SDS011;56981;53.532;49.398;2023-07-22T11:11:53;5.18;;;1.50;;
69714;SDS011;56981;53.532;49.398;2023-07-22T11:14:33;2.00;;;1.60;;
69714;SDS011;56981;53.532;49.398;2023-07-22T11:17:03;2.03;;;1.50;;
69714;SDS011;56981;53.532;49.398;2023-07-22T11:19:33;2.75;;;1.58;;
69714;SDS011;56981;53.532;49.398;2023-07-22T11:22:00;2.00;;;1.80;;
69714;SDS011;56981;53.532;49.398;2023-07-22T11:24:28;3.13;;;2.20;;
69714;SDS011;56981;53.532;49.398;2023-07-22T11:26:54;3.72;;;1.38;;
69714;SDS011;56981;53.532;49.398;2023-07-22T11:29:20;2.95;;;1.50;;
69714;SDS011;56981;53.532;49.398;2023-07-22T11:31:47;9.27;;;2.00;;
69714;SDS011;56981;53.532;49.398;2023-07-22T11:34:20;1.75;;;1.65;;
69714;SDS011;56981;53.532;49.398;2023-07-22T11:36:48;1.77;;;1.42;;
69714;SDS011;56981;53.532;49.398;2023-07-22T11:39:25;3.45;;;1.60;;
69714;SDS011;56981;53.532;49.398;2023-07-22T11:41:52;5.25;;;1.90;;
69714;SDS011;56981;53.532;49.398;2023-07-22T11:44:20;3.45;;;1.48;;
69714;SDS011;56981;53.532;49.398;2023-07-22T11:46:55;3.30;;;1.77;;
69714;SDS011;56981;53.532;49.398;2023-07-22T11:52:03;2.75;;;1.50;;
69714;SDS011;56981;53.532;49.398;2023-07-22T11:54:36;2.03;;;1.38;;
69714;SDS011;56981;53.532;49.398;2023-07-22T11:57:17;1.95;;;1.40;;
69714;SDS011;56981;53.532;49.398;2023-07-22T12:02:15;2.83;;;1.50;;
69714;SDS011;56981;53.532;49.398;2023-07-22T12:04:59;3.60;;;1.70;;
69714;SDS011;56981;53.532;49.398;2023-07-22T12:07:27;7.45;;;2.22;;
69714;SDS011;56981;53.532;49.398;2023-07-22T12:09:56;3.53;;;1.48;;
69714;SDS011;56981;53.532;49.398;2023-07-22T12:15:02;3.70;;;1.30;;
69714;SDS011;56981;53.532;49.398;2023-07-22T12:17:30;4.88;;;1.60;;
69714;SDS011;56981;53.532;49.398;2023-07-22T12:20:08;4.20;;;1.63;;
69714;SDS011;56981;53.532;49.398;2023-07-22T12:22:35;1.50;;;1.40;;
69714;SDS011;56981;53.532;49.398;2023-07-22T12:25:01;2.85;;;1.50;;
69714;SDS011;56981;53.532;49.398;2023-07-22T12:27:27;2.15;;;1.70;;
69714;SDS011;56981;53.532;49.398;2023-07-22T12:29:53;4.68;;;1.50;;
69714;SDS011;56981;53.532;49.398;2023-07-22T12:32:19;4.82;;;1.70;;
69714;SDS011;56981;53.532;49.398;2023-07-22T12:34:45;2.88;;;2.47;;
69714;SDS011;56981;53.532;49.398;2023-07-22T12:37:11;5.68;;;1.60;;
69714;SDS011;56981;53.532;49.398;2023-07-22T12:39:37;1.48;;;1.38;;
69714;SDS011;56981;53.532;49.398;2023-07-22T12:42:03;4.15;;;1.27;;
69714;SDS011;56981;53.532;49.398;2023-07-22T12:44:29;1.40;;;1.30;;
69714;SDS011;56981;53.532;49.398;2023-07-22T12:46:55;1.60;;;1.20;;
69714;SDS011;56981;53.532;49.398;2023-07-22T12:49:21;4.03;;;1.65;;
69714;SDS011;56981;53.532;49.398;2023-07-22T12:51:47;1.95;;;1.70;;
69714;SDS011;56981;53.532;49.398;2023-07-22T12:54:13;3.83;;;1.50;;
69714;SDS011;56981;53.532;49.398;2023-07-22T12:56:39;4.45;;;1.50;;
69714;SDS011;56981;53.532;49.398;2023-07-22T12:59:05;1.30;;;1.20;;
69714;SDS011;56981;53.532;49.398;2023-07-22T13:01:31;5.60;;;1.45;;
69714;SDS011;56981;53.532;49.398;2023-07-22T13:03:57;2.05;;;1.42;;
69714;SDS011;56981;53.532;49.398;2023-07-22T13:06:23;3.50;;;2.35;;
69714;SDS011;56981;53.532;49.398;2023-07-22T13:08:49;4.38;;;2.13;;
69714;SDS011;56981;53.532;49.398;2023-07-22T13:11:15;3.78;;;2.30;;
69714;SDS011;56981;53.532;49.398;2023-07-22T13:13:41;4.50;;;1.90;;
69714;SDS011;56981;53.532;49.398;2023-07-22T13:16:07;3.13;;;1.90;;
69714;SDS011;56981;53.532;49.398;2023-07-22T13:18:33;2.65;;;1.75;;
69714;SDS011;56981;53.532;49.398;2023-07-22T13:20:59;3.65;;;1.70;;
69714;SDS011;56981;53.532;49.398;2023-07-22T13:23:25;2.35;;;1.30;;
69714;SDS011;56981;53.532;49.398;2023-07-22T13:25:51;4.25;;;2.08;;
69714;SDS011;56981;53.532;49.398;2023-07-22T13:28:17;2.22;;;1.65;;
69714;SDS011;56981;53.532;49.398;2023-07-22T13:30:43;1.90;;;1.50;;
69714;SDS011;56981;53.532;49.398;2023-07-22T13:33:10;2.38;;;1.52;;
69714;SDS011;56981;53.532;49.398;2023-07-22T13:35:36;2.15;;;1.27;;
69714;SDS011;56981;53.532;49.398;2023-07-22T13:38:02;1.40;;;1.30;;
69714;SDS011;56981;53.532;49.398;2023-07-22T13:40:28;3.30;;;1.48;;
69714;SDS011;56981;53.532;49.398;2023-07-22T13:42:54;6.10;;;1.90;;
69714;SDS011;56981;53.532;49.398;2023-07-22T13:45:20;6.13;;;3.85;;
69714;SDS011;56981;53.532;49.398;2023-07-22T13:47:46;15.07;;;1.95;;
69714;SDS011;56981;53.532;49.398;2023-07-22T13:50:12;1.77;;;1.20;;
69714;SDS011;56981;53.532;49.398;2023-07-22T13:52:37;2.92;;;1.50;;
69714;SDS011;56981;53.532;49.398;2023-07-22T13:55:05;7.25;;;2.40;;
69714;SDS011;56981;53.532;49.398;2023-07-22T13:57:32;6.18;;;2.08;;
69714;SDS011;56981;53.532;49.398;2023-07-22T13:59:57;9.43;;;3.92;;
69714;SDS011;56981;53.532;49.398;2023-07-22T14:02:24;4.25;;;1.95;;
69714;SDS011;56981;53.532;49.398;2023-07-22T14:04:50;2.55;;;1.30;;
69714;SDS011;56981;53.532;49.398;2023-07-22T14:07:16;2.17;;;1.42;;
69714;SDS011;56981;53.532;49.398;2023-07-22T14:09:43;1.23;;;1.05;;
69714;SDS011;56981;53.532;49.398;2023-07-22T14:12:09;9.07;;;1.58;;
69714;SDS011;56981;53.532;49.398;2023-07-22T14:14:35;1.75;;;1.33;;
69714;SDS011;56981;53.532;49.398;2023-07-22T14:17:01;1.92;;;1.30;;
69714;SDS011;56981;53.532;49.398;2023-07-22T14:19:27;1.67;;;1.40;;
69714;SDS011;56981;53.532;49.398;2023-07-22T14:21:53;2.40;;;1.33;;
69714;SDS011;56981;53.532;49.398;2023-07-22T14:24:20;2.35;;;1.83;;
69714;SDS011;56981;53.532;49.398;2023-07-22T14:26:46;5.32;;;3.40;;
69714;SDS011;56981;53.532;49.398;2023-07-22T14:29:13;2.78;;;1.77;;
69714;SDS011;56981;53.532;49.398;2023-07-22T14:31:39;3.15;;;1.60;;
69714;SDS011;56981;53.532;49.398;2023-07-22T14:34:07;1.65;;;1.25;;
69714;SDS011;56981;53.532;49.398;2023-07-22T14:36:33;1.77;;;1.33;;
69714;SDS011;56981;53.532;49.398;2023-07-22T14:39:00;3.70;;;1.60;;
69714;SDS011;56981;53.532;49.398;2023-07-22T14:41:29;1.25;;;1.02;;
69714;SDS011;56981;53.532;49.398;2023-07-22T14:43:56;1.75;;;1.20;;
69714;SDS011;56981;53.532;49.398;2023-07-22T14:46:22;1.10;;;1.02;;
69714;SDS011;56981;53.532;49.398;2023-07-22T14:48:50;1.98;;;1.42;;
69714;SDS011;56981;53.532;49.398;2023-07-22T14:51:16;3.28;;;1.75;;
69714;SDS011;56981;53.532;49.398;2023-07-22T14:53:42;11.20;;;2.30;;
69714;SDS011;56981;53.532;49.398;2023-07-22T14:56:08;3.13;;;1.27;;